Weather at Brookside Farm Private Airstrip

Public forecast

Using degrees Celsius for public forecast. Weather courtesy of forecast.io.

Closest aviation weather report (METAR) to Brookside Farm Private Airstrip

Report is more than 2 hours old.

Closest report is St. Athan Airport, 14.0 nm (26.0 km) NNE. Retrieved 2021/04/16 15:20 UTC (5 hours ago):

EGSY 161520Z 13009KT 100V170 9999 FEW046 11/M01 Q1030

Closest aviation forecast (TAF) to Brookside Farm Private Airstrip

Closest forecast is Cardiff International Airport, 14.8 nm (27.5 km) NNE. Retrieved 2021/04/16 18:00 UTC (2 hours ago):

TAF EGFF 161654Z 1618/1718 03004KT 9999 SCT048